Time;durP1;ratioP1;P1;durP2;ratioP2;P2;SDS_P1;SDS_P2;PMS_P1;PMS_P2;Temp;Humidity;BMP_temperature;BMP_pressure;BME280_temperature;BME280_humidity;BME280_pressure;Samples;Min_cycle;Max_cycle;Signal;HPM_P1;HPM_P2
2023/04/22 00:00:27;;;;;;;27.95;18.90;;;;;;;8.99;100.00;-18270.22;4977701;28;20042;-80
2023/04/22 00:02:54;;;;;;;34.97;20.13;;;;;;;8.93;100.00;-18268.41;4978764;28;20057;-81
2023/04/22 00:05:20;;;;;;;27.23;20.67;;;;;;;8.87;100.00;-18266.91;4978371;28;20034;-81
2023/04/22 00:07:46;;;;;;;31.17;20.10;;;;;;;8.91;100.00;-18268.00;4979520;28;20053;-81
2023/04/22 00:10:11;;;;;;;29.45;20.60;;;;;;;8.78;100.00;-18264.56;4977809;28;20121;-81
2023/04/22 00:12:37;;;;;;;27.00;20.00;;;;;;;8.73;100.00;-18263.19;4977467;28;20047;-81
2023/04/22 00:15:02;;;;;;;26.63;18.75;;;;;;;8.71;100.00;-18262.50;4991605;28;20445;-82
2023/04/22 00:17:28;;;;;;;28.90;21.45;;;;;;;8.66;100.00;-18261.13;4994987;28;20039;-81
2023/04/22 00:19:53;;;;;;;31.05;21.15;;;;;;;8.58;100.00;-18259.19;4975685;28;20051;-81
2023/04/22 00:22:18;;;;;;;26.33;18.25;;;;;;;8.38;100.00;-18253.56;4979873;28;20110;-81
2023/04/22 00:24:44;;;;;;;28.05;18.52;;;;;;;8.32;100.00;-18252.19;4978493;28;20043;-81
2023/04/22 00:27:10;;;;;;;26.73;19.92;;;;;;;8.26;100.00;-18250.53;4979735;28;20099;-81
2023/04/22 00:29:35;;;;;;;30.13;20.83;;;;;;;8.25;100.00;-18250.25;4979340;28;20051;-81
2023/04/22 00:32:01;;;;;;;26.08;19.33;;;;;;;8.22;100.00;-18249.41;4979190;28;20114;-81
2023/04/22 00:34:26;;;;;;;26.13;19.77;;;;;;;8.21;100.00;-18249.16;4985893;28;20094;-81
2023/04/22 00:36:52;;;;;;;28.73;20.40;;;;;;;8.14;100.00;-18247.34;4976550;28;20039;-81
2023/04/22 00:39:17;;;;;;;32.17;22.30;;;;;;;8.23;100.00;-18249.69;4974807;28;20090;-81
2023/04/22 00:41:42;;;;;;;40.22;27.58;;;;;;;8.33;100.00;-18252.44;4975991;28;20072;-81
2023/04/22 00:44:10;;;;;;;34.97;25.15;;;;;;;8.29;100.00;-18251.34;4975362;28;20494;-81
2023/04/22 00:46:37;;;;;;;32.17;23.38;;;;;;;8.28;100.00;-18250.94;4975735;28;20219;-81
2023/04/22 00:49:03;;;;;;;30.33;22.52;;;;;;;8.22;100.00;-18249.28;4972232;28;20070;-80
2023/04/22 00:51:28;;;;;;;28.95;22.95;;;;;;;8.26;100.00;-18250.53;4970542;28;20074;-80
2023/04/22 00:53:54;;;;;;;29.30;21.52;;;;;;;8.17;100.00;-18247.91;4971542;28;20058;-79
2023/04/22 00:56:21;;;;;;;31.40;22.25;;;;;;;8.05;100.00;-18244.75;4969303;28;20532;-79
2023/04/22 00:58:46;;;;;;;32.33;24.33;;;;;;;8.12;100.00;-18246.66;4970652;28;20043;-79
2023/04/22 01:01:12;;;;;;;30.52;22.70;;;;;;;8.06;100.00;-18245.03;4973135;28;20510;-79
2023/04/22 01:03:39;;;;;;;28.00;22.15;;;;;;;8.10;100.00;-18246.25;4973043;28;20109;-79
2023/04/22 01:06:04;;;;;;;29.80;22.17;;;;;;;8.02;100.00;-18243.91;4974494;28;20039;-79
2023/04/22 01:08:30;;;;;;;36.97;25.73;;;;;;;7.94;100.00;-18241.84;4971973;28;20046;-79
2023/04/22 01:10:58;;;;;;;37.35;26.15;;;;;;;7.91;100.00;-18241.16;4974244;28;20049;-80
2023/04/22 01:13:23;;;;;;;38.47;25.07;;;;;;;7.84;100.00;-18239.09;4974095;28;20473;-79
2023/04/22 01:15:50;;;;;;;30.40;22.20;;;;;;;7.72;100.00;-18235.78;4974341;28;20058;-80
2023/04/22 01:18:16;;;;;;;34.08;24.50;;;;;;;7.73;100.00;-18236.19;4971759;28;20042;-79
2023/04/22 01:20:41;;;;;;;32.13;23.73;;;;;;;7.80;100.00;-18238.13;4973857;28;20159;-79
2023/04/22 01:23:16;;;;;;;27.23;20.55;;;;;;;7.75;100.00;-18236.63;4974311;28;20089;-80
2023/04/22 01:25:42;;;;;;;29.13;21.17;;;;;;;7.74;100.00;-18236.34;4988417;28;20042;-80
2023/04/22 01:28:08;;;;;;;30.88;21.48;;;;;;;7.77;100.00;-18237.16;4987813;28;20078;-79
2023/04/22 01:30:34;;;;;;;28.33;21.30;;;;;;;7.70;100.00;-18235.38;4972360;28;20067;-79
2023/04/22 01:32:59;;;;;;;31.90;22.13;;;;;;;7.67;100.00;-18234.69;4973722;28;20030;-79
2023/04/22 01:35:25;;;;;;;30.30;21.85;;;;;;;7.64;100.00;-18233.72;4971103;28;20470;-79
2023/04/22 01:37:50;;;;;;;29.40;20.13;;;;;;;7.58;100.00;-18232.06;4981480;28;20050;-79
2023/04/22 01:40:18;;;;;;;26.70;21.40;;;;;;;7.49;100.00;-18229.72;4975472;28;20039;-79
2023/04/22 01:42:44;;;;;;;24.05;19.42;;;;;;;7.33;100.00;-18225.31;4963587;28;20539;-79
2023/04/22 01:45:11;;;;;;;29.17;21.65;;;;;;;7.31;100.00;-18224.91;4973279;28;20055;-79
2023/04/22 01:47:37;;;;;;;30.95;21.98;;;;;;;7.34;100.00;-18225.59;4971932;28;20042;-79
2023/04/22 01:50:03;;;;;;;27.70;21.65;;;;;;;7.33;100.00;-18225.31;4972293;28;20043;-79
2023/04/22 01:52:29;;;;;;;26.58;20.77;;;;;;;7.31;100.00;-18224.91;4972540;28;20038;-79
2023/04/22 01:54:55;;;;;;;30.70;22.60;;;;;;;7.28;100.00;-18223.94;4975797;28;20050;-79
2023/04/22 01:57:20;;;;;;;31.88;22.88;;;;;;;7.27;100.00;-18223.81;4974497;28;20039;-79
2023/04/22 01:59:46;;;;;;;30.48;21.92;;;;;;;7.32;100.00;-18225.03;4975073;28;20513;-79
2023/04/22 02:02:11;;;;;;;28.08;21.10;;;;;;;7.30;100.00;-18224.63;4978350;28;20046;-79
2023/04/22 02:04:36;;;;;;;33.70;22.17;;;;;;;7.29;100.00;-18224.34;4975184;28;20113;-79
2023/04/22 02:07:02;;;;;;;31.30;22.30;;;;;;;7.28;100.00;-18224.09;4973622;28;20122;-79
2023/04/22 02:09:27;;;;;;;29.58;20.85;;;;;;;7.27;100.00;-18223.66;4972270;28;20063;-79
2023/04/22 02:11:52;;;;;;;33.85;24.35;;;;;;;7.26;100.00;-18223.41;4973783;28;20043;-79
2023/04/22 02:14:18;;;;;;;36.78;24.17;;;;;;;7.26;100.00;-18223.53;4968455;28;20474;-79
2023/04/22 02:16:43;;;;;;;38.22;27.42;;;;;;;7.39;100.00;-18226.97;4974463;28;20047;-79
2023/04/22 02:19:09;;;;;;;46.80;32.72;;;;;;;7.44;100.00;-18228.50;4973470;28;20118;-79
2023/04/22 02:21:34;;;;;;;56.10;36.97;;;;;;;7.62;100.00;-18233.31;4972844;28;20038;-79
2023/04/22 02:23:59;;;;;;;54.55;36.97;;;;;;;7.74;100.00;-18236.47;4973089;28;20043;-79
2023/04/22 02:26:25;;;;;;;47.65;33.35;;;;;;;7.82;100.00;-18238.53;4972325;28;20058;-79
2023/04/22 02:28:53;;;;;;;50.45;33.85;;;;;;;7.79;100.00;-18237.84;4972663;28;20051;-79
2023/04/22 02:31:18;;;;;;;51.95;34.40;;;;;;;7.81;100.00;-18238.41;4972822;28;20043;-79
2023/04/22 02:33:44;;;;;;;51.50;34.53;;;;;;;7.80;100.00;-18238.13;4973175;28;20077;-79
2023/04/22 02:36:10;;;;;;;51.75;34.13;;;;;;;7.81;100.00;-18238.28;4971116;28;20042;-79
2023/04/22 02:38:35;;;;;;;46.13;32.28;;;;;;;7.79;100.00;-18237.72;4971314;28;20049;-79
2023/04/22 02:41:01;;;;;;;51.88;35.10;;;;;;;7.81;100.00;-18238.28;4973052;28;20102;-79
2023/04/22 02:43:26;;;;;;;54.53;35.03;;;;;;;7.78;100.00;-18237.44;4972219;28;20043;-79
2023/04/22 02:45:51;;;;;;;48.10;31.42;;;;;;;7.79;100.00;-18237.72;4972713;28;20047;-79
2023/04/22 02:48:17;;;;;;;53.20;34.22;;;;;;;7.78;100.00;-18237.44;4971625;28;20050;-79
2023/04/22 02:50:42;;;;;;;47.35;33.65;;;;;;;7.78;100.00;-18237.59;4971529;28;20110;-79
2023/04/22 02:53:07;;;;;;;54.97;36.28;;;;;;;7.84;100.00;-18239.22;4976495;28;20039;-81
2023/04/22 02:55:33;;;;;;;52.88;36.25;;;;;;;7.84;100.00;-18239.09;4975719;28;20039;-81
2023/04/22 02:57:58;;;;;;;52.95;35.95;;;;;;;7.89;100.00;-18240.59;4977370;28;20046;-81
2023/04/22 03:00:24;;;;;;;53.05;34.78;;;;;;;7.85;100.00;-18239.50;4975786;28;20109;-81
2023/04/22 03:02:49;;;;;;;51.90;35.83;;;;;;;7.83;100.00;-18238.97;4977167;28;20087;-81
2023/04/22 03:05:14;;;;;;;55.97;36.03;;;;;;;7.83;100.00;-18238.97;4975323;28;20049;-80
2023/04/22 03:07:40;;;;;;;55.03;37.42;;;;;;;7.81;100.00;-18238.41;4977233;28;20050;-82
2023/04/22 03:10:06;;;;;;;55.88;37.95;;;;;;;7.79;100.00;-18237.84;4972077;28;20050;-81
2023/04/22 03:12:31;;;;;;;59.10;39.17;;;;;;;7.77;100.00;-18237.31;4970758;28;20744;-81
2023/04/22 03:14:57;;;;;;;60.60;40.75;;;;;;;7.86;100.00;-18239.78;4968121;28;20047;-81
2023/04/22 03:17:22;;;;;;;57.45;37.38;;;;;;;7.85;100.00;-18239.50;4971978;28;20039;-80
2023/04/22 03:19:47;;;;;;;57.88;38.20;;;;;;;7.88;100.00;-18240.34;4969146;28;20047;-80
2023/04/22 03:22:13;;;;;;;56.65;37.97;;;;;;;7.89;100.00;-18240.59;4969753;28;20061;-80
2023/04/22 03:24:38;;;;;;;58.75;40.45;;;;;;;7.90;100.00;-18240.75;4971918;28;20046;-80
2023/04/22 03:27:04;;;;;;;59.10;39.40;;;;;;;7.97;100.00;-18242.53;4970196;28;20122;-80
2023/04/22 03:29:29;;;;;;;60.63;41.15;;;;;;;8.06;100.00;-18245.16;4967670;28;20041;-81
2023/04/22 03:31:54;;;;;;;60.70;41.55;;;;;;;8.14;100.00;-18247.22;4972288;28;20070;-81
2023/04/22 03:34:20;;;;;;;61.42;39.88;;;;;;;8.17;100.00;-18248.03;4987691;28;20049;-80
2023/04/22 03:36:45;;;;;;;63.95;40.80;;;;;;;8.25;100.00;-18250.09;4971372;28;20039;-81
2023/04/22 03:39:11;;;;;;;61.83;40.50;;;;;;;8.36;100.00;-18253.28;4972777;28;20053;-82
2023/04/22 03:41:36;;;;;;;64.07;41.47;;;;;;;8.42;100.00;-18254.66;4973449;28;20121;-81
2023/04/22 03:44:01;;;;;;;65.43;42.63;;;;;;;8.42;100.00;-18254.66;4971790;28;20070;-81
2023/04/22 03:46:26;;;;;;;64.22;41.88;;;;;;;8.48;100.00;-18256.31;4966136;28;20105;-79
2023/04/22 03:48:52;;;;;;;64.45;42.72;;;;;;;8.52;100.00;-18257.56;4964079;28;20407;-78
2023/04/22 03:51:17;;;;;;;64.63;42.50;;;;;;;8.58;100.00;-18259.06;4966779;28;20521;-78
2023/04/22 03:53:42;;;;;;;62.28;42.20;;;;;;;8.65;100.00;-18260.84;4963367;28;20050;-78
2023/04/22 03:56:08;;;;;;;63.58;40.63;;;;;;;8.70;100.00;-18262.38;4983526;28;20558;-78
2023/04/22 03:58:33;;;;;;;64.78;40.17;;;;;;;8.76;100.00;-18264.00;4968002;28;20129;-78
2023/04/22 04:00:58;;;;;;;63.05;42.03;;;;;;;8.73;100.00;-18263.06;4968111;28;20651;-78
2023/04/22 04:03:25;;;;;;;60.40;40.75;;;;;;;8.68;100.00;-18261.81;4968832;28;20407;-79
2023/04/22 04:05:50;;;;;;;64.10;42.05;;;;;;;8.72;100.00;-18262.91;4970196;28;20038;-79
2023/04/22 04:08:15;;;;;;;61.15;40.63;;;;;;;8.70;100.00;-18262.38;4970068;28;20074;-79
2023/04/22 04:10:41;;;;;;;65.32;44.30;;;;;;;8.71;100.00;-18262.63;4968800;28;20063;-79
2023/04/22 04:13:06;;;;;;;63.35;43.00;;;;;;;8.79;100.00;-18264.84;4969549;28;20038;-79
2023/04/22 04:15:32;;;;;;;66.20;44.58;;;;;;;8.79;100.00;-18264.84;4969367;28;20066;-79
2023/04/22 04:18:00;;;;;;;65.82;42.20;;;;;;;8.81;100.00;-18265.41;4969952;28;20050;-79
2023/04/22 04:20:25;;;;;;;68.43;45.08;;;;;;;8.86;100.00;-18266.50;4968612;28;20069;-79
2023/04/22 04:22:50;;;;;;;64.07;43.95;;;;;;;8.91;100.00;-18268.00;4968278;28;20086;-79
2023/04/22 04:25:17;;;;;;;65.25;43.33;;;;;;;8.90;100.00;-18267.59;4969048;28;20042;-79
2023/04/22 04:27:42;;;;;;;64.32;42.53;;;;;;;8.93;100.00;-18268.41;4969203;28;20600;-79
2023/04/22 04:30:09;;;;;;;62.92;42.85;;;;;;;8.94;100.00;-18268.69;4965511;28;20031;-79
2023/04/22 04:32:34;;;;;;;66.88;42.35;;;;;;;8.94;100.00;-18268.69;4969768;28;20437;-79
2023/04/22 04:35:01;;;;;;;62.60;41.97;;;;;;;8.95;100.00;-18269.09;4970389;28;20109;-79
2023/04/22 04:37:26;;;;;;;66.75;40.92;;;;;;;8.93;100.00;-18268.56;4973350;28;20039;-80
2023/04/22 04:39:52;;;;;;;64.88;41.97;;;;;;;9.00;100.00;-18270.34;4972529;28;20062;-79
2023/04/22 04:42:18;;;;;;;58.38;40.60;;;;;;;8.87;100.00;-18266.78;4988648;28;20042;-79
2023/04/22 04:44:46;;;;;;;63.20;43.08;;;;;;;8.89;100.00;-18267.47;4974678;28;20148;-79
2023/04/22 04:47:11;;;;;;;65.68;43.03;;;;;;;8.89;100.00;-18267.31;4955787;28;20043;-79
2023/04/22 04:49:38;;;;;;;63.70;42.40;;;;;;;8.94;100.00;-18268.84;4953532;28;20138;-79
2023/04/22 04:52:06;;;;;;;62.30;41.92;;;;;;;8.95;100.00;-18269.09;4954901;28;20043;-79
2023/04/22 04:54:31;;;;;;;68.13;44.30;;;;;;;8.88;100.00;-18267.03;4961851;28;20042;-79
2023/04/22 04:56:57;;;;;;;66.05;45.67;;;;;;;8.81;100.00;-18265.41;4974903;28;20039;-79
2023/04/22 04:59:22;;;;;;;65.45;44.00;;;;;;;8.89;100.00;-18267.31;4972695;28;20046;-79
2023/04/22 05:01:48;;;;;;;63.42;41.13;;;;;;;8.91;100.00;-18268.00;4985194;28;20051;-79
2023/04/22 05:04:13;;;;;;;65.13;43.58;;;;;;;8.92;100.00;-18268.16;4968433;28;20051;-79
2023/04/22 05:06:38;;;;;;;62.10;40.72;;;;;;;8.91;100.00;-18267.88;4972516;28;20424;-79
2023/04/22 05:09:04;;;;;;;63.33;42.78;;;;;;;8.91;100.00;-18267.88;4971863;28;20054;-79
2023/04/22 05:11:29;;;;;;;62.45;41.88;;;;;;;8.92;100.00;-18268.16;4970530;28;20038;-79
2023/04/22 05:13:55;;;;;;;66.90;43.88;;;;;;;8.95;100.00;-18268.97;4969327;28;20046;-79
2023/04/22 05:16:21;;;;;;;59.05;41.47;;;;;;;8.95;100.00;-18268.97;4971129;28;20122;-79
2023/04/22 05:18:46;;;;;;;64.75;43.58;;;;;;;9.00;100.00;-18270.34;4984321;28;20100;-79
2023/04/22 05:21:11;;;;;;;63.38;42.83;;;;;;;8.99;100.00;-18270.22;4968997;28;20047;-79
2023/04/22 05:23:37;;;;;;;60.78;40.92;;;;;;;9.06;100.00;-18272.00;4969524;28;20042;-79
2023/04/22 05:26:02;;;;;;;60.90;43.05;;;;;;;9.09;100.00;-18272.81;4989982;28;20043;-79
2023/04/22 05:28:27;;;;;;;62.10;43.38;;;;;;;9.12;100.00;-18273.50;4968551;28;20042;-78
2023/04/22 05:30:53;;;;;;;55.28;40.03;;;;;;;9.11;100.00;-18273.38;4971173;28;20046;-79
2023/04/22 05:33:18;;;;;;;58.53;41.35;;;;;;;9.14;100.00;-18274.19;4979636;28;20049;-79
2023/04/22 05:35:43;;;;;;;53.13;40.50;;;;;;;9.17;100.00;-18274.88;4968024;28;20051;-79
2023/04/22 05:38:09;;;;;;;56.78;40.30;;;;;;;9.20;100.00;-18275.72;4975696;28;20043;-79
2023/04/22 05:40:35;;;;;;;54.63;39.17;;;;;;;9.29;100.00;-18278.06;4972169;28;20506;-79
2023/04/22 05:43:00;;;;;;;51.85;36.13;;;;;;;9.33;100.00;-18279.16;4974793;28;20062;-79
2023/04/22 05:45:25;;;;;;;55.30;37.13;;;;;;;9.40;100.00;-18281.22;4968315;28;20062;-79
2023/04/22 05:47:51;;;;;;;48.88;35.95;;;;;;;9.43;100.00;-18282.03;4972878;28;20546;-79
2023/04/22 05:50:16;;;;;;;53.45;36.42;;;;;;;9.45;100.00;-18282.44;4981734;28;20069;-80
2023/04/22 05:52:41;;;;;;;50.00;34.47;;;;;;;9.51;100.00;-18284.09;4969192;28;20062;-79
2023/04/22 05:55:07;;;;;;;47.03;32.97;;;;;;;9.51;100.00;-18284.09;4975305;28;20035;-80
2023/04/22 05:57:32;;;;;;;53.78;37.38;;;;;;;9.55;100.00;-18285.06;4977096;28;20042;-79
2023/04/22 05:59:59;;;;;;;44.33;33.58;;;;;;;9.54;100.00;-18284.94;4967883;28;20473;-79
2023/04/22 06:02:25;;;;;;;40.72;31.35;;;;;;;9.55;100.00;-18285.06;4968246;28;20066;-79
2023/04/22 06:04:50;;;;;;;41.08;29.95;;;;;;;9.55;100.00;-18285.19;4968896;28;20074;-79
2023/04/22 06:07:15;;;;;;;41.47;30.33;;;;;;;9.64;100.00;-18287.69;4983263;28;20403;-80
2023/04/22 06:09:41;;;;;;;42.90;32.05;;;;;;;9.68;100.00;-18288.78;4965063;28;20043;-79
2023/04/22 06:12:06;;;;;;;41.55;29.73;;;;;;;9.70;100.00;-18289.19;4968164;28;20053;-79
2023/04/22 06:14:32;;;;;;;37.28;27.88;;;;;;;9.75;100.00;-18290.56;4970384;28;20464;-80
2023/04/22 06:16:57;;;;;;;36.97;29.98;;;;;;;9.79;100.00;-18291.66;4969225;28;20617;-80
2023/04/22 06:19:23;;;;;;;35.95;27.52;;;;;;;9.84;100.00;-18292.91;4971084;28;20122;-81
2023/04/22 06:21:48;;;;;;;36.17;28.67;;;;;;;9.88;100.00;-18294.00;4973195;28;20054;-79
2023/04/22 06:24:13;;;;;;;34.67;25.25;;;;;;;9.94;100.00;-18295.66;4977163;28;20046;-79
2023/04/22 06:26:39;;;;;;;33.35;24.48;;;;;;;10.00;100.00;-18297.31;4974094;28;20494;-79
2023/04/22 06:29:04;;;;;;;33.17;25.95;;;;;;;10.05;100.00;-18298.69;4972454;28;20069;-79
2023/04/22 06:31:32;;;;;;;32.97;26.63;;;;;;;10.12;100.00;-18300.47;4973745;28;20125;-79
2023/04/22 06:33:58;;;;;;;34.83;25.57;;;;;;;10.20;100.00;-18302.53;4975203;28;20409;-79
2023/04/22 06:36:24;;;;;;;32.53;23.60;;;;;;;10.23;100.00;-18303.34;4974050;28;20365;-80
2023/04/22 06:38:50;;;;;;;29.13;24.35;;;;;;;10.31;100.00;-18305.56;4972318;28;20399;-79
2023/04/22 06:41:16;;;;;;;29.05;24.17;;;;;;;10.38;100.00;-18307.47;4971098;28;20031;-79
2023/04/22 06:43:41;;;;;;;31.98;22.40;;;;;;;10.42;100.00;-18308.56;4986754;28;20042;-79
2023/04/22 06:46:07;;;;;;;28.58;22.48;;;;;;;10.53;100.00;-18311.47;4973062;28;20046;-79
2023/04/22 06:48:32;;;;;;;27.85;21.33;;;;;;;10.59;100.00;-18313.25;4987939;28;20205;-80
2023/04/22 06:50:57;;;;;;;30.30;22.75;;;;;;;10.72;100.00;-18316.53;4981981;28;20066;-79
2023/04/22 06:53:23;;;;;;;24.80;20.48;;;;;;;10.76;100.00;-18317.63;4972584;28;20042;-80
2023/04/22 06:55:49;;;;;;;25.42;19.35;;;;;;;10.74;100.00;-18317.22;4972175;28;20046;-79
2023/04/22 06:58:14;;;;;;;23.50;19.30;;;;;;;10.79;100.00;-18318.47;4977168;28;20090;-79
2023/04/22 07:00:40;;;;;;;22.85;18.95;;;;;;;10.85;100.00;-18320.13;4965479;28;20043;-79
2023/04/22 07:03:05;;;;;;;25.08;19.30;;;;;;;10.87;100.00;-18320.66;4971270;28;20045;-79
2023/04/22 07:05:30;;;;;;;21.48;18.05;;;;;;;10.91;100.00;-18321.75;4971715;28;20066;-81
2023/04/22 07:07:56;;;;;;;22.25;17.83;;;;;;;10.94;100.00;-18322.44;4972539;28;20075;-81
2023/04/22 07:10:21;;;;;;;24.50;19.42;;;;;;;10.95;100.00;-18322.72;4975544;28;20663;-81
2023/04/22 07:12:47;;;;;;;23.95;18.40;;;;;;;10.97;100.00;-18323.28;4970437;28;20049;-80
2023/04/22 07:15:12;;;;;;;24.23;17.45;;;;;;;11.08;100.00;-18326.28;4971983;28;20042;-81
2023/04/22 07:17:37;;;;;;;20.23;16.90;;;;;;;11.14;100.00;-18327.81;4970901;28;20086;-80
2023/04/22 07:20:03;;;;;;;20.20;15.25;;;;;;;11.18;100.00;-18328.91;4970332;28;20047;-80
2023/04/22 07:22:29;;;;;;;20.13;15.55;;;;;;;11.24;100.00;-18330.56;4971136;28;20034;-81
2023/04/22 07:24:55;;;;;;;20.05;16.98;;;;;;;11.33;100.00;-18332.88;4972293;28;20429;-82
2023/04/22 07:27:20;;;;;;;17.50;15.02;;;;;;;11.34;100.00;-18333.31;4970645;28;20129;-81
2023/04/22 07:29:45;;;;;;;18.75;14.38;;;;;;;11.46;100.00;-18336.59;4970467;28;20052;-81
2023/04/22 07:32:11;;;;;;;16.23;13.70;;;;;;;11.68;100.00;-18342.50;4971138;28;20050;-81
2023/04/22 07:34:36;;;;;;;17.85;13.00;;;;;;;11.87;100.00;-18347.56;4966367;28;20042;-82
2023/04/22 07:37:02;;;;;;;15.55;12.00;;;;;;;12.02;100.00;-18351.41;4969466;28;20054;-82
2023/04/22 07:39:27;;;;;;;13.52;11.30;;;;;;;12.22;100.00;-18356.78;4970185;28;20043;-81
2023/04/22 07:41:52;;;;;;;12.95;10.38;;;;;;;12.37;100.00;-18360.88;4985633;28;20093;-82
2023/04/22 07:44:20;;;;;;;12.55;9.82;;;;;;;12.46;100.00;-18363.34;4972030;28;20065;-82
2023/04/22 07:46:47;;;;;;;12.48;10.05;;;;;;;12.59;100.00;-18366.91;4967739;28;20046;-81
2023/04/22 07:49:16;;;;;;;12.35;10.27;;;;;;;12.79;100.00;-18372.28;4972313;28;20054;-81
2023/04/22 07:51:42;;;;;;;;;;;;;;;12.98;100.00;-18377.22;4969839;28;20049;-81
2023/04/22 07:54:08;;;;;;;11.43;9.50;;;;;;;13.01;100.00;-18378.03;4972965;28;19918;-81
2023/04/22 07:56:33;;;;;;;11.35;9.48;;;;;;;13.18;100.00;-18382.69;4969654;28;20043;-82
2023/04/22 07:58:59;;;;;;;11.05;8.52;;;;;;;13.35;100.00;-18387.06;4973503;28;20039;-82
2023/04/22 08:01:24;;;;;;;8.63;7.10;;;;;;;13.54;100.00;-18392.41;4967096;28;20106;-82
2023/04/22 08:03:49;;;;;;;9.05;7.07;;;;;;;13.73;100.00;-18397.34;4988786;28;20057;-82
2023/04/22 08:06:15;;;;;;;9.20;6.88;;;;;;;13.84;100.00;-18400.38;4974829;28;20035;-82
2023/04/22 08:08:40;;;;;;;9.20;6.90;;;;;;;14.02;100.00;-18405.03;4988166;28;20039;-82
2023/04/22 08:11:06;;;;;;;10.80;6.75;;;;;;;14.18;100.00;-18409.56;4973869;28;20031;-83
2023/04/22 08:13:32;;;;;;;9.10;7.25;;;;;;;14.30;100.00;-18412.56;4973350;28;20423;-82
2023/04/22 08:15:58;;;;;;;9.10;6.57;;;;;;;14.41;100.00;-18415.56;4973831;28;20506;-82
2023/04/22 08:18:24;;;;;;;9.18;6.90;;;;;;;14.54;100.00;-18419.00;4972179;28;20042;-82
2023/04/22 08:20:49;;;;;;;10.40;6.90;;;;;;;14.57;100.00;-18419.97;4973598;28;20046;-82
2023/04/22 08:23:15;;;;;;;12.60;6.82;;;;;;;14.70;100.00;-18423.25;4972453;28;20050;-83
2023/04/22 08:25:40;;;;;;;8.38;6.53;;;;;;;14.75;100.00;-18424.59;4974387;28;20101;-82
2023/04/22 08:28:06;;;;;;;8.93;6.60;;;;;;;14.80;100.00;-18425.97;4973148;28;20662;-82
2023/04/22 08:30:31;;;;;;;8.00;6.63;;;;;;;14.99;100.00;-18431.19;4973658;28;20042;-82
2023/04/22 08:32:56;;;;;;;8.13;5.85;;;;;;;15.03;100.00;-18432.13;4974701;28;20513;-82
2023/04/22 08:35:22;;;;;;;9.98;6.68;;;;;;;15.04;100.00;-18432.53;4988467;28;20583;-82
2023/04/22 08:37:47;;;;;;;8.90;6.78;;;;;;;15.12;100.00;-18434.59;4973491;28;20035;-83
2023/04/22 08:40:12;;;;;;;8.32;6.90;;;;;;;15.12;100.00;-18434.72;4974018;28;20035;-83
2023/04/22 08:42:39;;;;;;;7.55;6.50;;;;;;;15.18;100.00;-18436.09;4986191;28;20055;-82
2023/04/22 08:45:05;;;;;;;8.30;5.95;;;;;;;15.21;100.00;-18437.06;4970982;28;20053;-83
2023/04/22 08:47:34;;;;;;;8.23;6.40;;;;;;;15.30;100.00;-18439.53;4986738;28;20034;-83
2023/04/22 08:50:02;;;;;;;9.07;6.80;;;;;;;15.40;100.00;-18442.00;4970129;28;20069;-83
2023/04/22 08:52:29;;;;;;;9.20;6.32;;;;;;;15.42;100.00;-18442.66;4970527;28;20039;-83
2023/04/22 08:54:55;;;;;;;10.27;6.32;;;;;;;15.55;100.00;-18446.22;4986747;28;20053;-83
2023/04/22 08:57:21;;;;;;;9.88;6.97;;;;;;;15.66;100.00;-18449.09;4973427;28;20042;-83
2023/04/22 08:59:48;;;;;;;10.30;6.43;;;;;;;15.74;100.00;-18451.28;4972969;28;20034;-83
2023/04/22 09:02:18;;;;;;;9.45;6.30;;;;;;;15.91;100.00;-18455.81;4987049;28;20078;-83
2023/04/22 09:04:46;;;;;;;7.85;5.10;;;;;;;16.10;100.00;-18460.72;4984178;28;20030;-83
2023/04/22 09:07:17;;;;;;;8.43;4.53;;;;;;;16.23;100.00;-18464.41;4967961;28;20059;-83
2023/04/22 09:09:43;;;;;;;9.48;4.65;;;;;;;16.33;100.00;-18467.00;4974255;28;20051;-83
2023/04/22 09:12:09;;;;;;;6.60;4.05;;;;;;;16.38;100.00;-18468.25;4975170;28;20053;-83
2023/04/22 09:14:35;;;;;;;5.63;3.80;;;;;;;16.27;100.00;-18465.38;4989652;28;20039;-83
2023/04/22 09:17:02;;;;;;;5.68;3.38;;;;;;;16.36;100.00;-18467.81;4973012;28;20046;-83
2023/04/22 09:19:27;;;;;;;5.32;3.85;;;;;;;16.40;100.00;-18468.94;4972804;28;20038;-83
2023/04/22 09:21:56;;;;;;;6.93;4.68;;;;;;;16.41;100.00;-18469.06;4976417;28;20097;-83
2023/04/22 09:24:21;;;;;;;5.55;4.20;;;;;;;16.41;100.00;-18469.19;4976693;28;20034;-83
2023/04/22 09:26:47;;;;;;;7.15;4.70;;;;;;;16.45;100.00;-18470.16;4981315;28;20401;-83
2023/04/22 09:29:14;;;;;;;7.05;4.10;;;;;;;16.53;100.00;-18472.34;4977023;28;20043;-83
2023/04/22 09:31:40;;;;;;;7.93;4.50;;;;;;;16.64;100.00;-18475.22;4975292;28;20109;-83
2023/04/22 09:34:05;;;;;;;6.10;4.60;;;;;;;16.73;100.00;-18477.66;4977191;28;20066;-83
2023/04/22 09:36:37;;;;;;;5.88;4.63;;;;;;;16.69;100.00;-18476.72;4974661;28;20404;-83
2023/04/22 09:39:06;;;;;;;7.50;5.50;;;;;;;16.75;100.00;-18478.22;4973289;28;20125;-83
2023/04/22 09:41:33;;;;;;;8.83;4.83;;;;;;;16.85;100.00;-18480.94;4975730;28;20049;-83
2023/04/22 09:44:00;;;;;;;7.53;4.50;;;;;;;16.80;100.00;-18479.59;4976026;28;20286;-83
2023/04/22 09:46:27;;;;;;;7.22;4.50;;;;;;;16.84;100.00;-18480.69;4973360;28;20126;-83
2023/04/22 09:48:58;;;;;;;7.50;4.70;;;;;;;16.82;100.00;-18480.00;4969582;28;20106;-83
2023/04/22 09:51:23;;;;;;;6.68;4.45;;;;;;;16.88;100.00;-18481.75;4973388;28;20034;-83
2023/04/22 09:54:00;;;;;;;6.22;5.40;;;;;;;17.00;100.00;-18484.91;4975185;28;20043;-83
2023/04/22 09:56:48;;;;;;;6.68;4.60;;;;;;;17.09;100.00;-18487.22;4967952;28;20629;-83
2023/04/22 09:59:16;;;;;;;6.97;4.83;;;;;;;17.17;100.00;-18489.41;4967643;28;20227;-83
2023/04/22 10:01:41;;;;;;;7.43;4.75;;;;;;;17.28;100.00;-18492.41;4971231;28;20915;-83
2023/04/22 10:04:13;;;;;;;5.90;4.47;;;;;;;17.21;100.00;-18490.38;4969956;28;20126;-83
2023/04/22 10:06:39;;;;;;;5.72;4.43;;;;;;;17.40;100.00;-18495.56;4969331;28;20049;-83
2023/04/22 10:09:05;;;;;;;10.60;4.47;;;;;;;17.51;100.00;-18498.56;4968272;28;20417;-84
2023/04/22 10:11:31;;;;;;;7.07;4.60;;;;;;;17.63;100.00;-18501.56;4971095;28;20706;-83
2023/04/22 10:13:59;;;;;;;6.53;4.40;;;;;;;17.81;100.00;-18506.63;4971533;28;20081;-83
2023/04/22 10:16:26;;;;;;;8.15;4.18;;;;;;;17.87;100.00;-18507.97;4972173;28;20039;-83
2023/04/22 10:18:55;;;;;;;7.60;4.43;;;;;;;18.03;100.00;-18512.34;4965593;28;20051;-83
2023/04/22 10:21:23;;;;;;;5.88;4.25;;;;;;;18.25;100.00;-18518.34;4971897;28;20446;-83
2023/04/22 10:23:49;;;;;;;5.10;3.83;;;;;;;18.44;100.00;-18523.25;4970928;28;20109;-83
2023/04/22 10:26:47;;;;;;;6.03;3.97;;;;;;;18.40;100.00;-18522.31;4970484;28;20515;-83
2023/04/22 10:29:16;;;;;;;6.55;3.45;;;;;;;18.41;100.00;-18522.44;4983379;28;20106;-83
2023/04/22 10:31:52;;;;;;;5.17;3.63;;;;;;;18.44;100.00;-18523.25;4969552;28;20136;-83
2023/04/22 10:34:17;;;;;;;6.40;3.83;;;;;;;18.56;100.00;-18526.53;4970127;28;20042;-83
2023/04/22 10:36:58;;;;;;;5.30;3.90;;;;;;;18.64;100.00;-18528.56;4971910;28;20046;-83
2023/04/22 10:39:25;;;;;;;4.88;3.30;;;;;;;18.83;100.00;-18533.63;4984274;28;20049;-83
2023/04/22 10:42:01;;;;;;;7.60;3.70;;;;;;;19.07;100.00;-18540.16;4968012;28;20058;-83
2023/04/22 10:44:31;;;;;;;6.25;3.80;;;;;;;19.29;100.00;-18545.88;4971834;28;20039;-83
2023/04/22 10:46:58;;;;;;;7.20;3.58;;;;;;;19.34;100.00;-18547.25;4971641;28;20290;-83
2023/04/22 10:49:25;;;;;;;11.32;5.38;;;;;;;19.53;100.00;-18552.28;4970097;28;20042;-83
2023/04/22 10:51:51;;;;;;;6.10;3.60;;;;;;;19.55;100.00;-18552.97;4971235;28;20039;-83
2023/04/22 10:54:35;;;;;;;4.68;3.28;;;;;;;19.60;100.00;-18554.34;4971627;28;20129;-83
2023/04/22 10:57:05;;;;;;;5.20;3.67;;;;;;;19.71;100.00;-18557.19;4984589;28;20051;-83
2023/04/22 10:59:32;;;;;;;5.30;2.92;;;;;;;19.71;100.00;-18557.06;4968460;28;20038;-83
2023/04/22 11:02:01;;;;;;;6.05;3.40;;;;;;;19.72;100.00;-18557.34;4971653;28;20038;-83
2023/04/22 11:04:27;;;;;;;5.18;3.35;;;;;;;19.60;100.00;-18554.34;4969949;28;20050;-83